Weather History for Natchitoches, LA

Change the Weather History Date:

Sunday, March 3, 2013

  Actual Average Record
Temperature  
Mean Temperature 44 °F -  
Max Temperature 63 °F 67 °F 85 °F (1983)
Min Temperature 25 °F 46 °F 21 °F (1980)
Degree Days  
Heating Degree Days 21    
Moisture  
Dew Point 30 °F    
Average Humidity 62    
Maximum Humidity 99    
Minimum Humidity 26    
Precipitation  
Precipitation 0.00 in - - ()
Sea Level Pressure  
Sea Level Pressure 30.18 in    
Wind  
Wind Speed 3 mph (SSE)    
Max Wind Speed 10 mph    
Max Gust Speed -    
Visibility 10 miles    
Events      
Averages and records for this station are not official NWS values.
T = Trace of Precipitation, MM = Missing Value Source: NWS Daily Summary

Daily Weather History Graph

Daily Weather History Graph

Search for Another Location

Airport:

Trip Planner

Search our weather history database for the weather conditions in past years. The results will help you decide how hot, cold, wet, or windy it might be!

Date:

Astronomy

Mar. 03, 2013 Rise Set
Actual Time 6:36 AM CST 6:12 PM CST
Civil Twilight 6:12 AM CST 6:36 PM CST
Nautical Twilight 5:44 AM CST 7:04 PM CST
Astronomical Twilight 5:15 AM CST 7:33 PM CST
Moon No Moon Rise 10:16 AM CST (3/3)
Length of Visible Light 12h 24m
Length of Day
11h 35m
Waning Gibbous, 63% of the Moon is Illuminated
Mar 3
Waning Gibbous
Mar 4
Last Quarter
Mar 11
New
Mar 19
First Quarter
Mar 27
Full

Hourly Weather History & Observations

Time (CST) Temp. Windchill Dew Point Humidity Pressure Visibility Wind Dir Wind Speed Gust Speed Precip Events Conditions
12:15 AM 29.3 °F - 27.0 °F 91% 30.26 in 10.0 mi Calm Calm - N/A   Clear
12:35 AM 29.1 °F - 27.0 °F 92% 30.26 in 10.0 mi Calm Calm - N/A   Clear
12:55 AM 29.1 °F - 26.4 °F 90% 30.25 in 10.0 mi Calm Calm - N/A   Clear
1:35 AM 30.9 °F - 28.6 °F 91% 30.26 in 10.0 mi Calm Calm - N/A   Clear
1:55 AM 28.9 °F - 27.0 °F 92% 30.26 in 10.0 mi Calm Calm - N/A   Clear
2:15 AM 28.4 °F - 26.8 °F 94% 30.26 in 10.0 mi Calm Calm - N/A   Clear
2:35 AM 28.4 °F - 27.5 °F 96% 30.26 in 10.0 mi Calm Calm - N/A   Clear
2:55 AM 28.0 °F - 27.3 °F 97% 30.25 in 10.0 mi Calm Calm - N/A   Clear
3:15 AM 27.5 °F - 27.0 °F 98% 30.25 in 10.0 mi Calm Calm - N/A   Clear
3:35 AM 27.5 °F - 27.0 °F 98% 30.26 in 10.0 mi Calm Calm - N/A   Clear
3:55 AM 27.3 °F - 26.6 °F 97% 30.25 in 10.0 mi Calm Calm - N/A   Clear
4:15 AM 27.1 °F - 26.6 °F 98% 30.25 in 10.0 mi Calm Calm - N/A   Clear
4:35 AM 27.1 °F - 26.4 °F 97% 30.27 in 10.0 mi Calm Calm - N/A   Clear
4:55 AM 26.6 °F - 25.9 °F 97% 30.27 in 10.0 mi Calm Calm - N/A   Clear
5:15 AM 27.0 °F - 25.5 °F 94% 30.27 in 10.0 mi Calm Calm - N/A   Clear
6:15 AM 25.7 °F - 24.8 °F 96% 30.27 in 10.0 mi Calm Calm - N/A   Clear
6:55 AM 26.1 °F - 25.7 °F 99% 30.27 in 7.0 mi Calm Calm - N/A   Clear
7:15 AM 27.5 °F - 27.1 °F 99% 30.27 in 10.0 mi Calm Calm - N/A   Clear
7:35 AM 29.7 °F - 27.9 °F 93% 30.27 in 5.0 mi Calm Calm - N/A   Clear
7:55 AM 32.0 °F - 29.3 °F 90% 30.29 in 10.0 mi Calm Calm - N/A   Clear
8:15 AM 33.3 °F - 30.6 °F 90% 30.29 in 10.0 mi Calm Calm - N/A   Clear
8:35 AM 36.5 °F 32.7 °F 31.8 °F 83% 30.28 in 10.0 mi SSE 4.6 mph - N/A   Clear
8:55 AM 39.0 °F 35.7 °F 31.5 °F 74% 30.27 in 10.0 mi SE 4.6 mph - N/A   Clear
9:15 AM 41.0 °F 39.0 °F 31.1 °F 68% 30.28 in 10.0 mi SE 3.5 mph - N/A   Clear
9:35 AM 42.8 °F 41.1 °F 30.7 °F 62% 30.28 in 10.0 mi SSE 3.5 mph - N/A   Clear
9:55 AM 45.1 °F 43.7 °F 30.7 °F 57% 30.27 in 10.0 mi SE 3.5 mph - N/A   Clear
10:15 AM 46.8 °F - 30.7 °F 54% 30.27 in 10.0 mi ESE 5.8 mph - N/A   Clear
10:35 AM 48.2 °F - 30.2 °F 50% 30.27 in 10.0 mi ESE 3.5 mph - N/A   Clear
10:55 AM 50.2 °F - 29.3 °F 45% 30.27 in 10.0 mi South 4.6 mph - N/A   Clear
11:15 AM 50.9 °F - 27.7 °F 41% 30.26 in 10.0 mi East 4.6 mph - N/A   Clear
11:35 AM 52.9 °F - 25.5 °F 35% 30.25 in 10.0 mi Calm Calm - N/A   Clear
11:55 AM 54.5 °F - 25.3 °F 32% 30.24 in 10.0 mi SSW 3.5 mph - N/A   Clear
12:15 PM 55.6 °F - 26.8 °F 33% 30.23 in 10.0 mi Calm Calm - N/A   Clear
12:35 PM 56.1 °F - 25.7 °F 31% 30.21 in 10.0 mi NNE 3.5 mph - N/A   Clear
12:55 PM 56.5 °F - 26.1 °F 31% 30.19 in 10.0 mi NE 4.6 mph - N/A   Clear
1:15 PM 58.6 °F - 27.1 °F 30% 30.18 in 10.0 mi South 6.9 mph - N/A   Clear
1:35 PM 59.4 °F - 28.2 °F 31% 30.16 in 10.0 mi ESE 4.6 mph - N/A   Clear
1:55 PM 59.2 °F - 27.7 °F 30% 30.15 in 10.0 mi ESE 6.9 mph - N/A   Clear
2:35 PM 61.3 °F - 27.9 °F 28% 30.13 in 10.0 mi SE 8.1 mph - N/A   Clear
2:55 PM 61.9 °F - 26.8 °F 26% 30.12 in 10.0 mi West 3.5 mph - N/A   Clear
3:35 PM 63.0 °F - 28.0 °F 27% 30.10 in 10.0 mi SSE 4.6 mph - N/A   Clear
4:15 PM 63.1 °F - 29.1 °F 28% 30.08 in 10.0 mi SSW 6.9 mph - N/A   Clear
4:35 PM 63.5 °F - 29.8 °F 28% 30.08 in 10.0 mi South 6.9 mph - N/A   Clear
4:55 PM 63.0 °F - 29.5 °F 28% 30.07 in 10.0 mi South 9.2 mph - N/A   Clear
5:15 PM 60.4 °F - 31.1 °F 33% 30.07 in 10.0 mi South 6.9 mph - N/A   Clear
5:35 PM 61.0 °F - 30.7 °F 32% 30.07 in 10.0 mi South 6.9 mph - N/A   Clear
5:55 PM 58.6 °F - 31.6 °F 36% 30.07 in 10.0 mi South 5.8 mph - N/A   Clear
6:15 PM 55.6 °F - 31.8 °F 41% 30.07 in 10.0 mi South 8.1 mph - N/A   Clear
6:35 PM 54.1 °F - 32.0 °F 43% 30.07 in 10.0 mi South 6.9 mph - N/A   Clear
6:55 PM 51.3 °F - 32.5 °F 49% 30.06 in 10.0 mi SSE 6.9 mph - N/A   Clear
7:15 PM 50.4 °F - 33.8 °F 53% 30.06 in 10.0 mi SSE 8.1 mph - N/A   Clear
7:35 PM 49.6 °F - 33.8 °F 54% 30.07 in 10.0 mi SSE 6.9 mph - N/A   Clear
7:55 PM 48.9 °F - 34.0 °F 56% 30.06 in 10.0 mi South 9.2 mph - N/A   Clear
8:15 PM 49.6 °F - 32.9 °F 53% 30.07 in 10.0 mi South 8.1 mph - N/A   Clear
8:35 PM 48.7 °F - 33.4 °F 56% 30.06 in 10.0 mi SSE 8.1 mph - N/A   Clear
8:55 PM 47.5 °F - 34.3 °F 60% 30.06 in 10.0 mi SSE 8.1 mph - N/A   Clear
9:15 PM 46.9 °F - 33.8 °F 60% 30.06 in 10.0 mi SSE 8.1 mph - N/A   Clear
9:35 PM 48.4 °F - 32.5 °F 54% 30.06 in 10.0 mi South 9.2 mph - N/A   Clear
9:55 PM 48.9 °F - 32.9 °F 54% 30.06 in 10.0 mi South 9.2 mph - N/A   Clear
10:15 PM 49.1 °F - 33.8 °F 56% 30.06 in 10.0 mi South 10.4 mph - N/A   Clear
10:35 PM 48.6 °F - 33.8 °F 57% 30.06 in 10.0 mi South 8.1 mph - N/A   Clear
10:55 PM 47.8 °F - 34.0 °F 59% 30.06 in 10.0 mi South 6.9 mph - N/A   Clear
11:15 PM 47.3 °F - 33.8 °F 59% 30.06 in 10.0 mi South 5.8 mph - N/A   Clear
11:35 PM 45.7 °F 42.7 °F 33.8 °F 63% 30.06 in 10.0 mi South 5.8 mph - N/A   Clear
11:55 PM 45.5 °F 42.5 °F 34.5 °F 65% 30.05 in 10.0 mi South 5.8 mph - N/A   Clear